createdAt,value
2022-11-20T00:00:51.983Z,47.13
2022-11-20T00:03:18.680Z,47.28
2022-11-20T00:05:45.397Z,46.93
2022-11-20T00:08:12.108Z,47.29
2022-11-20T00:10:39.056Z,47.02
2022-11-20T00:13:06.032Z,47.01
2022-11-20T00:15:32.820Z,46.89
2022-11-20T00:17:59.573Z,46.77
2022-11-20T00:20:26.236Z,47.17
2022-11-20T00:22:52.861Z,46.79
2022-11-20T00:25:19.518Z,47.01
2022-11-20T00:27:46.336Z,47.24
2022-11-20T00:30:15.022Z,47.17
2022-11-20T00:32:41.956Z,46.95
2022-11-20T00:35:08.760Z,46.92
2022-11-20T00:37:35.414Z,47.10
2022-11-20T00:40:02.108Z,46.88
2022-11-20T00:42:34.066Z,46.84
2022-11-20T00:45:00.751Z,46.79
2022-11-20T00:47:27.347Z,46.99
2022-11-20T00:49:54.005Z,47.44
2022-11-20T00:52:20.685Z,47.25
2022-11-20T00:54:47.289Z,47.55
2022-11-20T00:57:13.935Z,47.58
2022-11-20T00:59:40.552Z,47.69
2022-11-20T01:02:07.285Z,47.39
2022-11-20T01:04:33.916Z,47.29
2022-11-20T01:07:00.632Z,47.79
2022-11-20T01:09:27.303Z,47.36
2022-11-20T01:11:54.044Z,47.79
2022-11-20T01:14:20.977Z,47.80
2022-11-20T01:16:49.512Z,47.87
2022-11-20T01:19:20.767Z,47.68
2022-11-20T01:21:49.118Z,47.88
2022-11-20T01:24:16.538Z,47.72
2022-11-20T01:26:44.173Z,47.75
2022-11-20T01:29:14.742Z,47.97
2022-11-20T01:31:41.435Z,48.04
2022-11-20T01:34:10.962Z,47.99
2022-11-20T01:36:38.608Z,47.88
2022-11-20T01:39:06.740Z,48.30
2022-11-20T01:41:52.756Z,48.23
2022-11-20T01:44:21.332Z,48.28
2022-11-20T01:46:57.518Z,48.02
2022-11-20T01:49:27.432Z,48.05
2022-11-20T01:51:56.155Z,48.32
2022-11-20T01:54:38.621Z,48.37
2022-11-20T01:57:06.112Z,48.34
2022-11-20T01:59:32.780Z,48.12
2022-11-20T02:01:59.535Z,48.36
2022-11-20T02:04:26.762Z,48.05
2022-11-20T02:06:56.619Z,48.23
2022-11-20T02:09:23.643Z,48.57
2022-11-20T02:11:50.460Z,48.23
2022-11-20T02:14:17.208Z,48.56
2022-11-20T02:16:48.054Z,48.34
2022-11-20T02:19:24.554Z,48.58
2022-11-20T02:22:01.115Z,48.50
2022-11-20T02:24:27.942Z,48.46
2022-11-20T02:26:56.200Z,48.46
2022-11-20T02:29:28.073Z,47.91
2022-11-20T02:31:56.386Z,47.88
2022-11-20T02:34:22.990Z,47.96
2022-11-20T02:36:50.782Z,48.03
2022-11-20T02:39:20.462Z,48.04
2022-11-20T02:41:47.365Z,48.30
2022-11-20T02:44:13.988Z,47.85
2022-11-20T02:46:40.587Z,48.21
2022-11-20T02:49:07.279Z,48.03
2022-11-20T02:51:33.947Z,47.99
2022-11-20T02:54:00.770Z,48.08
2022-11-20T02:56:27.420Z,47.81
2022-11-20T02:58:54.084Z,48.26
2022-11-20T03:01:20.779Z,47.81
2022-11-20T03:03:49.630Z,47.93
2022-11-20T03:06:17.288Z,47.82
2022-11-20T03:08:43.894Z,47.91
2022-11-20T03:11:10.528Z,48.08
2022-11-20T03:13:37.326Z,48.27
2022-11-20T03:16:14.229Z,48.22
2022-11-20T03:18:41.286Z,48.27
2022-11-20T03:21:08.449Z,48.27
2022-11-20T03:23:35.288Z,48.19
2022-11-20T03:26:22.150Z,48.06
2022-11-20T03:29:09.017Z,48.28
2022-11-20T03:31:41.580Z,48.30
2022-11-20T03:34:09.141Z,48.25
2022-11-20T03:36:35.815Z,48.37
2022-11-20T03:39:02.393Z,48.29
2022-11-20T03:41:30.473Z,48.22
2022-11-20T03:43:58.804Z,48.01
2022-11-20T03:46:26.103Z,48.52
2022-11-20T03:48:53.293Z,48.24
2022-11-20T03:51:21.609Z,48.42
2022-11-20T03:53:48.729Z,48.00
2022-11-20T03:56:16.148Z,48.48
2022-11-20T03:58:42.858Z,48.66
2022-11-20T04:01:15.142Z,48.51
2022-11-20T04:03:42.264Z,48.77
2022-11-20T04:06:11.732Z,48.63
2022-11-20T04:08:38.696Z,48.89
2022-11-20T04:11:11.420Z,48.92
2022-11-20T04:13:38.424Z,48.93
2022-11-20T04:16:05.986Z,49.25
2022-11-20T04:18:35.492Z,49.02
2022-11-20T04:21:02.154Z,49.29
2022-11-20T04:23:29.107Z,49.08
2022-11-20T04:25:55.881Z,49.43
2022-11-20T04:28:22.488Z,49.67
2022-11-20T04:30:49.083Z,49.23
2022-11-20T04:33:15.694Z,49.37
2022-11-20T04:35:42.366Z,49.50
2022-11-20T04:38:08.979Z,49.81
2022-11-20T04:40:35.675Z,49.92
2022-11-20T04:43:02.251Z,50.03
2022-11-20T04:45:28.893Z,50.01
2022-11-20T04:47:55.519Z,49.66
2022-11-20T04:50:22.197Z,50.16
2022-11-20T04:52:51.939Z,49.86
2022-11-20T04:55:18.586Z,50.49
2022-11-20T04:57:45.163Z,50.10
2022-11-20T05:00:12.224Z,50.41
2022-11-20T05:02:38.920Z,50.18
2022-11-20T05:05:05.794Z,50.24
2022-11-20T05:07:32.482Z,50.49
2022-11-20T05:09:59.156Z,50.19
2022-11-20T05:12:25.808Z,50.21
2022-11-20T05:14:52.551Z,50.47
2022-11-20T05:17:19.130Z,50.53
2022-11-20T05:19:48.366Z,50.87
2022-11-20T05:22:18.558Z,50.55
2022-11-20T05:24:45.210Z,50.51
2022-11-20T05:27:11.859Z,50.82
2022-11-20T05:29:38.430Z,50.71
2022-11-20T05:32:06.970Z,51.01
2022-11-20T05:34:33.578Z,50.87
2022-11-20T05:37:00.232Z,50.97
2022-11-20T05:39:26.928Z,51.15
2022-11-20T05:42:13.471Z,50.99
2022-11-20T05:44:40.429Z,51.29
2022-11-20T05:47:07.187Z,51.21
2022-11-20T05:49:34.060Z,51.01
2022-11-20T05:52:00.720Z,51.02
2022-11-20T05:54:27.488Z,51.56
2022-11-20T05:56:54.061Z,51.48
2022-11-20T05:59:20.865Z,51.33
2022-11-20T06:01:47.577Z,51.55
2022-11-20T06:04:14.211Z,51.65
2022-11-20T06:06:40.871Z,51.50
2022-11-20T06:09:07.464Z,51.64
2022-11-20T06:11:34.016Z,51.51
2022-11-20T06:14:00.612Z,51.84
2022-11-20T06:16:27.345Z,51.79
2022-11-20T06:18:53.986Z,51.76
2022-11-20T06:21:21.775Z,51.46
2022-11-20T06:23:49.181Z,51.79
2022-11-20T06:26:22.884Z,52.14
2022-11-20T06:28:49.954Z,51.94
2022-11-20T06:31:17.821Z,52.12
2022-11-20T06:33:44.701Z,52.18
2022-11-20T06:36:12.568Z,52.28
2022-11-20T06:38:39.748Z,52.30
2022-11-20T06:41:11.521Z,52.00
2022-11-20T06:43:38.180Z,51.76
2022-11-20T06:46:05.733Z,51.64
2022-11-20T06:48:32.842Z,52.01
2022-11-20T06:50:59.816Z,52.37
2022-11-20T06:53:27.923Z,52.31
2022-11-20T06:55:57.339Z,52.42
2022-11-20T06:58:23.947Z,52.32
2022-11-20T07:00:50.710Z,52.22
2022-11-20T07:03:17.318Z,52.41
2022-11-20T07:05:44.023Z,52.44
2022-11-20T07:08:10.615Z,52.80
2022-11-20T07:10:37.450Z,52.94
2022-11-20T07:13:04.096Z,53.04
2022-11-20T07:15:30.852Z,53.38
2022-11-20T07:17:59.733Z,53.67
2022-11-20T07:20:26.490Z,53.83
2022-11-20T07:22:57.006Z,53.50
2022-11-20T07:25:24.065Z,53.77
2022-11-20T07:27:50.643Z,53.63
2022-11-20T07:30:17.614Z,54.00
2022-11-20T07:32:54.977Z,54.03
2022-11-20T07:35:22.020Z,54.06
2022-11-20T07:37:49.710Z,54.31
2022-11-20T07:40:16.745Z,54.37
2022-11-20T07:42:56.719Z,54.31
2022-11-20T07:45:24.448Z,54.54
2022-11-20T07:47:51.200Z,54.22
2022-11-20T07:50:18.288Z,54.53
2022-11-20T07:52:51.816Z,54.42
2022-11-20T07:55:18.537Z,54.08
2022-11-20T07:57:45.272Z,54.29
2022-11-20T08:00:12.771Z,54.36
2022-11-20T08:02:40.514Z,54.43
2022-11-20T08:05:07.423Z,54.08
2022-11-20T08:07:40.786Z,54.45
2022-11-20T08:10:08.263Z,54.25
2022-11-20T08:12:59.127Z,53.85
2022-11-20T08:15:25.775Z,53.40
2022-11-20T08:18:15.547Z,53.02
2022-11-20T08:20:39.447Z,52.55
2022-11-20T08:23:07.623Z,51.92
2022-11-20T08:25:35.436Z,51.27
2022-11-20T08:28:10.280Z,51.55
2022-11-20T08:30:38.788Z,50.98
2022-11-20T08:33:12.125Z,51.04
2022-11-20T08:35:39.187Z,50.29
2022-11-20T08:38:06.756Z,50.09
2022-11-20T08:40:33.735Z,49.97
2022-11-20T08:43:01.411Z,49.74
2022-11-20T08:45:33.462Z,49.67
2022-11-20T08:48:02.095Z,49.67
2022-11-20T08:50:28.811Z,49.39
2022-11-20T08:53:02.809Z,49.20
2022-11-20T08:55:29.403Z,49.53
2022-11-20T08:57:56.029Z,49.46
2022-11-20T09:00:24.684Z,49.43
2022-11-20T09:03:02.328Z,49.31
2022-11-20T09:05:29.145Z,48.75
2022-11-20T09:07:59.167Z,48.88
2022-11-20T09:10:26.288Z,48.97
2022-11-20T09:12:58.495Z,48.60
2022-11-20T09:15:25.695Z,48.54
2022-11-20T09:17:59.411Z,48.39
2022-11-20T09:20:26.922Z,48.38
2022-11-20T09:23:02.938Z,48.78
2022-11-20T09:25:29.586Z,49.16
2022-11-20T09:27:56.844Z,48.82
2022-11-20T09:30:23.496Z,46.21
2022-11-20T09:33:00.397Z,47.30
2022-11-20T09:35:27.017Z,47.45
2022-11-20T09:38:00.138Z,47.57
2022-11-20T09:40:39.145Z,47.83
2022-11-20T09:43:25.792Z,47.76
2022-11-20T09:46:14.961Z,47.49
2022-11-20T09:49:04.222Z,47.78
2022-11-20T09:51:30.868Z,47.56
2022-11-20T09:54:06.845Z,48.11
2022-11-20T09:56:35.116Z,47.75
2022-11-20T09:59:12.475Z,47.68
2022-11-20T10:01:51.471Z,47.99
2022-11-20T10:04:19.294Z,47.82
2022-11-20T10:07:17.152Z,47.97
2022-11-20T10:09:44.433Z,47.48
2022-11-20T10:12:26.511Z,47.63
2022-11-20T10:15:03.577Z,47.64
2022-11-20T10:17:48.906Z,47.61
2022-11-20T10:20:24.757Z,47.65
2022-11-20T10:23:10.054Z,47.86
2022-11-20T10:25:51.726Z,47.62
2022-11-20T10:28:36.878Z,47.86
2022-11-20T10:31:11.621Z,48.18
2022-11-20T10:34:04.908Z,47.86
2022-11-20T10:36:29.259Z,47.86
2022-11-20T10:39:00.457Z,48.01
2022-11-20T10:41:38.400Z,48.22
2022-11-20T10:44:06.749Z,48.11
2022-11-20T10:46:46.380Z,48.00
2022-11-20T10:49:17.002Z,47.85
2022-11-20T10:51:43.589Z,48.16
2022-11-20T10:54:23.681Z,48.18
2022-11-20T10:56:54.729Z,48.15
2022-11-20T10:59:24.610Z,48.24
2022-11-20T11:01:51.423Z,48.06
2022-11-20T11:04:36.849Z,48.08
2022-11-20T11:07:11.509Z,48.17
2022-11-20T11:09:44.175Z,48.40
2022-11-20T11:12:14.605Z,48.30
2022-11-20T11:14:45.390Z,48.38
2022-11-20T11:17:23.536Z,48.00
2022-11-20T11:20:07.822Z,48.13
2022-11-20T11:22:35.750Z,48.30
2022-11-20T11:25:02.501Z,48.23
2022-11-20T11:27:29.309Z,48.36
2022-11-20T11:30:13.716Z,48.31
2022-11-20T11:32:55.921Z,48.11
2022-11-20T11:35:29.300Z,48.41
2022-11-20T11:38:03.940Z,48.54
2022-11-20T11:40:33.071Z,48.44
2022-11-20T11:43:05.310Z,48.59
2022-11-20T11:45:32.087Z,48.85
2022-11-20T11:48:01.510Z,49.05
2022-11-20T11:50:29.504Z,48.90
2022-11-20T11:52:56.134Z,49.18
2022-11-20T11:55:34.950Z,48.61
2022-11-20T11:58:10.749Z,48.92
2022-11-20T12:00:39.757Z,48.48
2022-11-20T12:03:10.431Z,48.33
2022-11-20T12:05:37.076Z,48.56
2022-11-20T12:08:12.161Z,48.44
2022-11-20T12:10:48.353Z,47.80
2022-11-20T12:13:35.266Z,48.42
2022-11-20T12:16:04.188Z,47.80
2022-11-20T12:18:31.805Z,48.28
2022-11-20T12:21:18.644Z,47.69
2022-11-20T12:24:03.934Z,47.99
2022-11-20T12:26:44.679Z,47.77
2022-11-20T12:29:18.003Z,47.45
2022-11-20T12:32:02.725Z,47.03
2022-11-20T12:34:35.133Z,46.80
2022-11-20T12:37:13.829Z,46.70
2022-11-20T12:39:43.700Z,46.19
2022-11-20T12:42:37.330Z,46.40
2022-11-20T12:45:24.876Z,45.86
2022-11-20T12:48:09.532Z,45.93
2022-11-20T12:51:14.074Z,45.12
2022-11-20T12:54:00.351Z,45.62
2022-11-20T12:56:30.024Z,44.83
2022-11-20T12:59:07.984Z,45.00
2022-11-20T13:01:51.521Z,44.71
2022-11-20T13:04:21.150Z,44.31
2022-11-20T13:06:47.978Z,44.10
2022-11-20T13:09:16.703Z,44.27
2022-11-20T13:11:46.291Z,44.18
2022-11-20T13:14:18.809Z,43.94
2022-11-20T13:17:06.221Z,43.85
2022-11-20T13:19:33.642Z,43.93
2022-11-20T13:22:00.371Z,44.34
2022-11-20T13:24:28.847Z,44.26
2022-11-20T13:27:01.861Z,43.84
2022-11-20T13:29:28.625Z,44.15
2022-11-20T13:32:07.921Z,43.56
2022-11-20T13:34:37.260Z,43.92
2022-11-20T13:37:05.086Z,43.51
2022-11-20T13:39:33.071Z,43.79
2022-11-20T13:42:01.444Z,43.52
2022-11-20T13:44:30.658Z,43.38
2022-11-20T13:46:57.262Z,43.44
2022-11-20T13:49:27.154Z,43.25
2022-11-20T13:52:00.653Z,42.88
2022-11-20T13:54:27.256Z,43.13
2022-11-20T13:57:15.205Z,43.39
2022-11-20T13:59:49.116Z,43.64
2022-11-20T14:02:17.635Z,43.44
2022-11-20T14:04:46.081Z,43.50
2022-11-20T14:07:13.324Z,43.77
2022-11-20T14:09:40.022Z,43.44
2022-11-20T14:12:15.386Z,43.32
2022-11-20T14:14:49.177Z,43.43
2022-11-20T14:17:23.529Z,43.29
2022-11-20T14:19:51.897Z,43.20
2022-11-20T14:22:21.631Z,43.69
2022-11-20T14:24:48.700Z,43.32
2022-11-20T14:27:16.715Z,43.67
2022-11-20T14:29:44.540Z,43.56
2022-11-20T14:32:11.486Z,43.86
2022-11-20T14:34:42.975Z,43.79
2022-11-20T14:37:16.762Z,43.42
2022-11-20T14:39:49.051Z,43.34
2022-11-20T14:42:17.302Z,43.24
2022-11-20T14:44:44.182Z,43.39
2022-11-20T14:47:13.091Z,43.77
2022-11-20T14:49:40.000Z,43.44
2022-11-20T14:52:12.780Z,43.82
2022-11-20T14:54:46.746Z,43.83
2022-11-20T14:57:24.121Z,43.71
2022-11-20T14:59:50.756Z,43.76
2022-11-20T15:02:18.687Z,43.90
2022-11-20T15:04:52.372Z,43.77
2022-11-20T15:07:35.928Z,43.49
2022-11-20T15:10:07.466Z,43.71
2022-11-20T15:12:36.045Z,43.86
2022-11-20T15:15:03.578Z,43.76
2022-11-20T15:17:31.496Z,43.99
2022-11-20T15:19:58.092Z,43.91
2022-11-20T15:22:24.661Z,44.21
2022-11-20T15:24:51.344Z,44.13
2022-11-20T15:27:17.956Z,44.35
2022-11-20T15:29:44.667Z,44.32
2022-11-20T15:32:13.530Z,44.50
2022-11-20T15:34:40.559Z,44.38
2022-11-20T15:37:07.246Z,44.62
2022-11-20T15:39:33.844Z,44.35
2022-11-20T15:42:00.566Z,44.27
2022-11-20T15:44:27.292Z,44.44
2022-11-20T15:46:53.995Z,44.56
2022-11-20T15:49:20.587Z,44.96
2022-11-20T15:51:53.253Z,44.88
2022-11-20T15:54:21.671Z,45.03
2022-11-20T15:56:49.656Z,44.95
2022-11-20T15:59:16.300Z,45.21
2022-11-20T16:01:43.475Z,44.64
2022-11-20T16:04:14.211Z,44.86
2022-11-20T16:06:40.811Z,44.92
2022-11-20T16:09:07.533Z,44.70
2022-11-20T16:11:34.580Z,44.76
2022-11-20T16:14:19.941Z,44.68
2022-11-20T16:16:46.661Z,44.78
2022-11-20T16:19:14.157Z,44.99
2022-11-20T16:21:42.649Z,44.89
2022-11-20T16:24:11.926Z,45.09
2022-11-20T16:26:38.572Z,44.89
2022-11-20T16:29:06.282Z,45.27
2022-11-20T16:31:33.457Z,44.86
2022-11-20T16:34:01.292Z,45.34
2022-11-20T16:36:28.741Z,44.94
2022-11-20T16:38:56.200Z,45.21
2022-11-20T16:41:22.923Z,45.28
2022-11-20T16:43:50.565Z,45.63
2022-11-20T16:46:18.405Z,45.29
2022-11-20T16:48:45.060Z,45.52
2022-11-20T16:51:12.629Z,45.47
2022-11-20T16:53:39.722Z,45.76
2022-11-20T16:56:13.761Z,45.56
2022-11-20T16:58:40.348Z,45.44
2022-11-20T17:01:11.126Z,45.70
2022-11-20T17:03:38.624Z,45.33
2022-11-20T17:06:16.224Z,45.55
2022-11-20T17:08:43.003Z,45.69
2022-11-20T17:11:10.767Z,45.40
2022-11-20T17:13:39.968Z,45.88
2022-11-20T17:16:08.551Z,45.92
2022-11-20T17:18:35.250Z,46.07
2022-11-20T17:21:05.515Z,45.96
2022-11-20T17:23:36.350Z,46.00
2022-11-20T17:26:08.993Z,45.99
2022-11-20T17:28:36.116Z,46.28
2022-11-20T17:31:03.940Z,46.55
2022-11-20T17:33:30.584Z,46.52
2022-11-20T17:35:57.392Z,46.49
2022-11-20T17:38:24.490Z,46.76
2022-11-20T17:40:51.203Z,46.43
2022-11-20T17:43:18.252Z,46.54
2022-11-20T17:45:45.221Z,46.75
2022-11-20T17:48:12.461Z,47.07
2022-11-20T17:50:39.123Z,46.89
2022-11-20T17:53:07.378Z,46.90
2022-11-20T17:55:55.769Z,46.99
2022-11-20T17:58:23.554Z,47.13
2022-11-20T18:00:51.697Z,47.03
2022-11-20T18:03:18.284Z,47.09
2022-11-20T18:05:44.899Z,47.27
2022-11-20T18:08:11.468Z,47.17
2022-11-20T18:10:38.676Z,47.32
2022-11-20T18:13:05.272Z,47.62
2022-11-20T18:15:31.828Z,47.52
2022-11-20T18:17:58.455Z,47.84
2022-11-20T18:20:31.089Z,47.56
2022-11-20T18:23:00.299Z,47.68
2022-11-20T18:25:26.936Z,47.87
2022-11-20T18:27:53.523Z,47.99
2022-11-20T18:30:20.170Z,47.91
2022-11-20T18:32:51.042Z,47.76
2022-11-20T18:35:17.625Z,47.88
2022-11-20T18:37:44.239Z,48.03
2022-11-20T18:40:11.295Z,47.82
2022-11-20T18:42:56.782Z,47.78
2022-11-20T18:45:23.513Z,47.88
2022-11-20T18:47:50.172Z,48.03
2022-11-20T18:50:16.838Z,47.62
2022-11-20T18:52:52.891Z,48.01
2022-11-20T18:55:19.500Z,47.52
2022-11-20T18:57:46.189Z,47.83
2022-11-20T19:00:13.096Z,47.77
2022-11-20T19:02:50.164Z,47.77
2022-11-20T19:05:17.128Z,47.72
2022-11-20T19:07:43.921Z,47.73
2022-11-20T19:10:10.901Z,47.23
2022-11-20T19:12:37.530Z,47.20
2022-11-20T19:15:04.412Z,47.33
2022-11-20T19:17:32.636Z,47.09
2022-11-20T19:20:00.379Z,47.50
2022-11-20T19:22:27.051Z,47.33
2022-11-20T19:24:53.627Z,47.36
2022-11-20T19:27:20.389Z,47.00
2022-11-20T19:29:46.976Z,47.14
2022-11-20T19:32:13.610Z,47.25
2022-11-20T19:34:40.325Z,46.86
2022-11-20T19:37:07.225Z,47.08
2022-11-20T19:39:35.702Z,46.75
2022-11-20T19:42:02.812Z,46.73
2022-11-20T19:44:29.389Z,46.67
2022-11-20T19:46:57.460Z,46.39
2022-11-20T19:49:24.252Z,46.25
2022-11-20T19:51:51.410Z,46.17
2022-11-20T19:54:18.302Z,46.35
2022-11-20T19:56:45.730Z,46.06
2022-11-20T19:59:12.524Z,46.12
2022-11-20T20:01:39.650Z,45.78
2022-11-20T20:04:07.225Z,45.75
2022-11-20T20:06:35.501Z,45.67
2022-11-20T20:09:05.566Z,45.57
2022-11-20T20:11:33.362Z,45.57
2022-11-20T20:14:04.039Z,45.20
2022-11-20T20:16:30.969Z,45.59
2022-11-20T20:18:58.538Z,45.20
2022-11-20T20:21:25.240Z,45.69
2022-11-20T20:23:55.763Z,45.24
2022-11-20T20:26:23.834Z,45.17
2022-11-20T20:28:50.906Z,45.30
2022-11-20T20:31:18.914Z,44.88
2022-11-20T20:33:45.759Z,44.95
2022-11-20T20:36:13.304Z,44.76
2022-11-20T20:38:40.079Z,44.84
2022-11-20T20:41:06.675Z,45.00
2022-11-20T20:43:53.164Z,44.92
2022-11-20T20:46:20.012Z,44.87
2022-11-20T20:48:51.476Z,44.91
2022-11-20T20:51:20.897Z,44.77
2022-11-20T20:53:47.564Z,44.69
2022-11-20T20:56:14.211Z,44.51
2022-11-20T20:58:40.886Z,44.48
2022-11-20T21:01:08.951Z,44.52
2022-11-20T21:03:35.951Z,44.30
2022-11-20T21:06:03.776Z,44.16
2022-11-20T21:08:30.363Z,44.05
2022-11-20T21:11:16.661Z,43.93
2022-11-20T21:13:43.983Z,43.85
2022-11-20T21:16:11.675Z,43.96
2022-11-20T21:18:38.737Z,43.53
2022-11-20T21:21:24.796Z,43.47
2022-11-20T21:23:53.579Z,43.66
2022-11-20T21:26:21.161Z,43.77
2022-11-20T21:28:47.852Z,44.16
2022-11-20T21:31:15.769Z,41.22
2022-11-20T21:33:47.441Z,40.50
2022-11-20T21:36:15.237Z,42.28
2022-11-20T21:38:42.128Z,43.08
2022-11-20T21:41:32.613Z,43.46
2022-11-20T21:44:32.059Z,43.78
2022-11-20T21:47:19.800Z,43.98
2022-11-20T21:50:06.628Z,44.27
2022-11-20T21:52:38.988Z,44.60
2022-11-20T21:55:05.847Z,44.61
2022-11-20T21:57:35.534Z,44.76
2022-11-20T22:00:02.682Z,44.89
2022-11-20T22:02:29.297Z,44.75
2022-11-20T22:04:56.078Z,44.63
2022-11-20T22:07:22.788Z,44.15
2022-11-20T22:09:49.540Z,44.25
2022-11-20T22:12:16.190Z,44.11
2022-11-20T22:14:42.811Z,43.73
2022-11-20T22:17:13.408Z,44.00
2022-11-20T22:19:40.003Z,43.83
2022-11-20T22:22:06.684Z,43.82
2022-11-20T22:24:33.580Z,43.97
2022-11-20T22:27:00.155Z,43.76
2022-11-20T22:29:26.742Z,43.83
2022-11-20T22:31:53.481Z,43.94
2022-11-20T22:34:20.350Z,43.57
2022-11-20T22:36:47.138Z,43.76
2022-11-20T22:39:13.735Z,43.93
2022-11-20T22:41:40.390Z,43.99
2022-11-20T22:44:07.972Z,43.75
2022-11-20T22:46:35.897Z,44.01
2022-11-20T22:49:04.005Z,43.98
2022-11-20T22:51:31.947Z,43.87
2022-11-20T22:53:58.500Z,43.74
2022-11-20T22:56:25.371Z,43.99
2022-11-20T22:58:52.511Z,43.91
2022-11-20T23:01:20.513Z,44.04
2022-11-20T23:03:48.480Z,43.81
2022-11-20T23:06:15.889Z,43.70
2022-11-20T23:08:42.730Z,43.77
2022-11-20T23:11:11.029Z,43.92
2022-11-20T23:13:37.862Z,43.50
2022-11-20T23:16:06.292Z,43.82
2022-11-20T23:18:35.483Z,43.56
2022-11-20T23:21:18.030Z,43.95
2022-11-20T23:23:48.215Z,43.72
2022-11-20T23:26:15.578Z,43.88
2022-11-20T23:28:42.968Z,43.89
2022-11-20T23:31:10.636Z,43.94
2022-11-20T23:33:37.912Z,44.68
2022-11-20T23:36:04.925Z,44.84
2022-11-20T23:38:31.543Z,44.64
2022-11-20T23:40:58.147Z,44.86
2022-11-20T23:43:25.298Z,45.08
2022-11-20T23:45:53.094Z,45.45
2022-11-20T23:48:20.372Z,45.53
2022-11-20T23:50:47.128Z,45.63
2022-11-20T23:53:14.669Z,45.46
2022-11-20T23:55:51.760Z,45.43
2022-11-20T23:58:18.785Z,45.35
